Time;durP1;ratioP1;P1;durP2;ratioP2;P2;SDS_P1;SDS_P2;PMS_P1;PMS_P2;Temp;Humidity;BMP_temperature;BMP_pressure;BME280_temperature;BME280_humidity;BME280_pressure;Samples;Min_cycle;Max_cycle;Signal;HPM_P1;HPM_P2
2023/07/16 00:00:30;;;;;;;26.80;4.95;;;15.80;99.90;;;;;;5053346;28;20449;-83
2023/07/16 00:02:56;;;;;;;30.88;5.45;;;15.80;99.90;;;;;;5046784;28;20021;-81
2023/07/16 00:05:22;;;;;;;23.80;5.22;;;15.80;99.90;;;;;;5052962;28;20070;-83
2023/07/16 00:07:47;;;;;;;22.67;5.43;;;15.80;99.90;;;;;;5053088;28;20036;-84
2023/07/16 00:10:13;;;;;;;22.13;4.57;;;15.80;99.90;;;;;;5053453;28;20041;-82
2023/07/16 00:12:39;;;;;;;29.70;5.05;;;15.90;99.90;;;;;;5053141;28;20044;-84
2023/07/16 00:15:06;;;;;;;27.80;5.70;;;15.90;99.90;;;;;;5052812;28;20025;-83
2023/07/16 00:17:32;;;;;;;26.00;5.30;;;15.90;99.90;;;;;;5052741;28;20107;-84
2023/07/16 00:19:58;;;;;;;21.70;4.78;;;15.90;99.70;;;;;;5052206;28;20021;-82
2023/07/16 00:22:24;;;;;;;27.42;4.88;;;15.90;99.90;;;;;;5052741;28;20419;-83
2023/07/16 00:24:49;;;;;;;22.38;4.75;;;15.90;99.70;;;;;;5053197;28;20017;-82
2023/07/16 00:27:15;;;;;;;18.75;4.10;;;15.90;99.40;;;;;;5052786;28;20021;-82
2023/07/16 00:29:41;;;;;;;24.23;4.78;;;15.90;98.90;;;;;;5035572;28;20397;-84
2023/07/16 00:32:07;;;;;;;25.90;3.92;;;16.00;99.00;;;;;;5052741;28;20032;-86
2023/07/16 00:34:32;;;;;;;22.58;4.30;;;16.00;98.70;;;;;;5063123;22;20054;-79
2023/07/16 00:37:01;;;;;;;21.67;5.15;;;16.00;98.90;;;;;;5035545;28;20095;-81
2023/07/16 00:39:28;;;;;;;23.23;4.45;;;16.00;99.00;;;;;;5033593;28;20017;-80
2023/07/16 00:41:54;;;;;;;16.88;3.45;;;16.10;99.10;;;;;;5032039;28;20551;-81
2023/07/16 00:44:20;;;;;;;23.90;5.50;;;16.10;98.80;;;;;;5055299;28;20053;-82
2023/07/16 00:46:45;;;;;;;23.30;5.10;;;16.10;99.00;;;;;;5032720;28;20049;-81
2023/07/16 00:49:11;;;;;;;21.15;4.50;;;16.10;99.20;;;;;;5032977;28;20017;-83
2023/07/16 00:51:37;;;;;;;28.83;3.95;;;16.10;98.90;;;;;;5033263;28;20022;-82
2023/07/16 00:54:03;;;;;;;14.57;3.55;;;16.10;98.20;;;;;;5032847;28;20083;-79
2023/07/16 00:56:29;;;;;;;21.83;4.90;;;16.10;98.30;;;;;;5031053;28;20508;-79
2023/07/16 00:58:55;;;;;;;23.25;4.65;;;16.10;98.40;;;;;;5032485;28;20355;-79
2023/07/16 01:01:20;;;;;;;30.77;6.55;;;16.10;98.30;;;;;;5032441;28;20497;-80
2023/07/16 01:03:46;;;;;;;24.80;5.35;;;16.20;98.30;;;;;;5032957;28;20029;-81
2023/07/16 01:06:35;;;;;;;32.13;6.40;;;16.20;98.30;;;;;;5034115;28;20032;-80
2023/07/16 01:09:30;;;;;;;33.17;7.57;;;16.20;97.90;;;;;;5032947;28;20170;-78
2023/07/16 01:11:57;;;;;;;21.83;4.70;;;16.20;97.40;;;;;;5023259;28;20072;-82
2023/07/16 01:14:23;;;;;;;14.40;4.28;;;16.20;98.00;;;;;;5032088;28;20025;-79
2023/07/16 01:16:49;;;;;;;23.83;4.25;;;16.20;97.90;;;;;;5032183;28;20033;-79
2023/07/16 01:19:15;;;;;;;21.27;3.90;;;16.20;98.20;;;;;;5031866;28;20018;-81
2023/07/16 01:21:45;;;;;;;16.55;3.58;;;16.30;98.10;;;;;;5032128;28;20487;-82
2023/07/16 01:24:55;;;;;;;25.98;3.72;;;16.30;98.30;;;;;;5032230;28;20022;-80
2023/07/16 01:27:53;;;;;;;16.23;3.88;;;16.30;98.80;;;;;;5041636;28;20037;-80
2023/07/16 01:30:19;;;;;;;21.98;3.72;;;16.30;98.40;;;;;;5008925;28;20076;-82
2023/07/16 01:32:46;;;;;;;15.82;3.70;;;16.30;98.60;;;;;;5032238;28;20478;-82
2023/07/16 01:35:13;;;;;;;22.77;4.90;;;16.30;98.50;;;;;;5062753;22;20052;-82
2023/07/16 01:37:41;;;;;;;20.13;3.53;;;16.30;98.30;;;;;;5044396;28;20047;-83
2023/07/16 01:40:09;;;;;;;30.20;5.88;;;16.30;98.10;;;;;;5051665;28;20021;-83
2023/07/16 01:42:34;;;;;;;25.35;7.82;;;16.30;98.10;;;;;;5034225;28;20027;-83
2023/07/16 01:45:00;;;;;;;17.45;4.30;;;16.30;98.00;;;;;;5050905;28;20025;-83
2023/07/16 01:47:29;;;;;;;26.10;4.43;;;16.40;97.70;;;;;;5051347;28;20100;-84
2023/07/16 01:49:55;;;;;;;21.13;5.75;;;16.30;97.20;;;;;;5049562;28;20115;-82
2023/07/16 01:52:21;;;;;;;20.23;6.85;;;16.30;97.00;;;;;;5051297;28;20056;-85
2023/07/16 01:54:47;;;;;;;31.95;6.15;;;16.20;97.20;;;;;;5032825;28;20028;-83
2023/07/16 01:57:13;;;;;;;27.73;7.97;;;16.20;97.20;;;;;;5050847;28;20040;-86
2023/07/16 01:59:39;;;;;;;24.55;6.05;;;16.30;97.30;;;;;;5033328;28;20477;-83
2023/07/16 02:02:05;;;;;;;25.48;5.75;;;16.30;97.30;;;;;;5033589;28;20063;-84
2023/07/16 02:04:30;;;;;;;29.45;6.00;;;16.30;97.10;;;;;;5049982;28;20029;-84
2023/07/16 02:06:56;;;;;;;25.83;5.30;;;16.30;97.20;;;;;;5033095;28;20132;-84
2023/07/16 02:09:22;;;;;;;22.40;5.80;;;16.30;97.40;;;;;;5051117;28;20025;-84
2023/07/16 02:11:48;;;;;;;16.90;4.60;;;16.40;96.90;;;;;;5033474;28;20040;-83
2023/07/16 02:14:15;;;;;;;16.23;4.40;;;16.30;96.80;;;;;;5050580;28;20473;-82
2023/07/16 02:16:41;;;;;;;24.00;4.93;;;16.20;95.80;;;;;;5032980;28;20511;-83
2023/07/16 02:19:07;;;;;;;27.48;5.97;;;16.20;95.60;;;;;;5049600;28;20039;-83
2023/07/16 02:21:32;;;;;;;26.75;6.15;;;16.20;96.00;;;;;;5033443;28;20028;-82
2023/07/16 02:23:58;;;;;;;24.95;4.95;;;16.20;95.90;;;;;;5033657;28;20033;-85
2023/07/16 02:26:25;;;;;;;20.33;4.25;;;16.10;95.80;;;;;;5048248;28;20100;-82
2023/07/16 02:28:51;;;;;;;20.13;3.67;;;16.10;95.70;;;;;;5050416;28;20025;-83
2023/07/16 02:31:16;;;;;;;21.98;4.25;;;16.10;95.70;;;;;;5050647;28;20021;-85
2023/07/16 02:33:42;;;;;;;28.05;4.78;;;16.20;95.50;;;;;;5050457;28;20021;-85
2023/07/16 02:36:08;;;;;;;32.17;5.90;;;16.10;95.50;;;;;;5102459;22;20044;-81
2023/07/16 02:38:34;;;;;;;14.38;3.55;;;16.10;95.40;;;;;;5070435;28;20095;-80
2023/07/16 02:40:59;;;;;;;26.95;4.95;;;16.10;94.90;;;;;;5069553;28;20031;-80
2023/07/16 02:43:25;;;;;;;17.83;5.53;;;16.00;94.50;;;;;;5069775;28;20100;-82
2023/07/16 02:45:51;;;;;;;22.98;7.50;;;16.00;95.10;;;;;;5070667;28;20028;-79
2023/07/16 02:48:16;;;;;;;21.13;8.10;;;16.10;95.10;;;;;;5070345;28;20032;-81
2023/07/16 02:50:42;;;;;;;18.80;5.95;;;16.00;95.00;;;;;;5070103;28;20024;-80
2023/07/16 02:53:08;;;;;;;20.00;6.00;;;16.00;94.00;;;;;;5070532;28;20020;-81
2023/07/16 02:55:37;;;;;;;20.45;6.88;;;16.00;94.20;;;;;;5052533;28;20047;-82
2023/07/16 02:58:04;;;;;;;22.83;6.97;;;15.90;94.10;;;;;;5052645;28;20051;-81
2023/07/16 03:00:30;;;;;;;26.52;9.10;;;15.90;94.20;;;;;;5071484;28;20019;-81
2023/07/16 03:02:56;;;;;;;25.15;6.95;;;15.90;93.90;;;;;;5070535;28;20020;-81
2023/07/16 03:05:21;;;;;;;32.17;8.55;;;15.90;94.10;;;;;;5069953;28;20024;-82
2023/07/16 03:07:47;;;;;;;22.67;5.85;;;15.80;94.30;;;;;;5070174;28;20028;-81
2023/07/16 03:10:13;;;;;;;20.60;3.90;;;15.80;94.30;;;;;;5069970;28;20024;-80
2023/07/16 03:12:38;;;;;;;19.48;3.25;;;15.80;93.90;;;;;;5052619;28;20115;-82
2023/07/16 03:15:04;;;;;;;11.88;2.65;;;15.90;93.00;;;;;;5070051;28;20039;-80
2023/07/16 03:17:30;;;;;;;25.05;5.18;;;15.90;93.30;;;;;;5053189;28;20372;-80
2023/07/16 03:19:56;;;;;;;26.48;4.57;;;15.90;93.40;;;;;;5073203;28;20025;-81
2023/07/16 03:22:21;;;;;;;22.27;5.03;;;15.90;93.60;;;;;;5073727;28;20024;-82
2023/07/16 03:24:47;;;;;;;20.05;4.97;;;15.90;93.80;;;;;;5066750;28;20096;-82
2023/07/16 03:27:13;;;;;;;18.02;6.18;;;15.90;94.00;;;;;;5073802;28;20103;-84
2023/07/16 03:29:39;;;;;;;17.23;4.00;;;16.00;93.10;;;;;;5073616;28;20021;-80
2023/07/16 03:32:05;;;;;;;23.02;6.80;;;16.00;93.30;;;;;;5073882;28;20066;-84
2023/07/16 03:34:30;;;;;;;23.65;8.38;;;16.00;93.50;;;;;;5080491;22;20049;-85
2023/07/16 03:36:56;;;;;;;27.80;6.90;;;16.00;93.80;;;;;;5038712;28;20056;-81
2023/07/16 03:39:22;;;;;;;20.75;8.10;;;16.00;93.90;;;;;;5034453;28;20112;-83
2023/07/16 03:41:47;;;;;;;21.20;8.07;;;15.90;94.10;;;;;;5034392;28;20025;-83
2023/07/16 03:44:13;;;;;;;27.95;9.30;;;15.90;93.90;;;;;;5032899;28;20072;-83
2023/07/16 03:46:39;;;;;;;29.40;7.78;;;16.00;93.90;;;;;;5039765;28;20397;-85
2023/07/16 03:49:07;;;;;;;25.90;6.32;;;16.00;93.90;;;;;;5032825;28;20061;-83
2023/07/16 03:51:33;;;;;;;25.63;8.15;;;16.00;94.20;;;;;;5040912;28;20017;-83
2023/07/16 03:53:58;;;;;;;24.05;6.13;;;16.00;93.60;;;;;;5041115;28;20033;-83
2023/07/16 03:56:24;;;;;;;16.33;5.03;;;15.90;93.00;;;;;;5032481;28;20037;-82
2023/07/16 03:58:50;;;;;;;22.73;6.43;;;16.00;92.60;;;;;;5034491;28;20045;-84
2023/07/16 04:01:15;;;;;;;24.27;6.95;;;16.00;93.00;;;;;;5032698;28;20037;-85
2023/07/16 04:03:41;;;;;;;27.88;9.35;;;15.90;92.90;;;;;;5034145;28;20090;-84
2023/07/16 04:06:09;;;;;;;23.33;8.18;;;15.90;92.70;;;;;;5033932;28;20477;-84
2023/07/16 04:08:35;;;;;;;21.42;7.53;;;16.00;92.90;;;;;;5033949;28;20009;-81
2023/07/16 04:11:02;;;;;;;25.17;4.63;;;15.90;93.10;;;;;;5033927;28;20029;-84
2023/07/16 04:13:28;;;;;;;21.50;4.70;;;15.90;92.20;;;;;;5033810;28;20025;-83
2023/07/16 04:15:55;;;;;;;19.70;3.67;;;15.80;92.20;;;;;;5048766;28;20051;-83
2023/07/16 04:18:27;;;;;;;20.45;3.03;;;15.70;92.00;;;;;;5033941;28;20380;-84
2023/07/16 04:20:53;;;;;;;20.75;2.80;;;15.70;92.50;;;;;;5033590;28;20029;-83
2023/07/16 04:23:19;;;;;;;17.48;3.53;;;15.80;91.80;;;;;;5033920;28;20021;-84
2023/07/16 04:25:45;;;;;;;14.70;3.75;;;15.70;91.80;;;;;;5038776;28;20461;-83
2023/07/16 04:28:11;;;;;;;16.90;3.25;;;15.70;91.50;;;;;;5034990;28;20017;-83
2023/07/16 04:30:37;;;;;;;14.70;2.53;;;15.70;91.60;;;;;;5040083;28;20095;-84
2023/07/16 04:33:04;;;;;;;15.82;2.85;;;15.70;91.10;;;;;;5039095;28;20071;-83
2023/07/16 04:35:30;;;;;;;16.20;2.97;;;15.70;90.80;;;;;;5065336;22;20044;-81
2023/07/16 04:37:56;;;;;;;15.63;2.70;;;15.70;91.00;;;;;;5075363;28;20017;-82
2023/07/16 04:40:21;;;;;;;19.67;3.97;;;15.70;90.80;;;;;;5072026;28;20027;-81
2023/07/16 04:42:47;;;;;;;14.63;3.30;;;15.70;91.10;;;;;;5054685;28;20368;-83
2023/07/16 04:45:13;;;;;;;18.05;5.20;;;15.70;91.50;;;;;;5072126;28;20444;-82
2023/07/16 04:47:38;;;;;;;14.57;2.72;;;15.70;91.00;;;;;;5054940;28;20043;-79
2023/07/16 04:50:05;;;;;;;13.18;2.97;;;15.70;91.10;;;;;;5071652;28;20385;-81
2023/07/16 04:52:30;;;;;;;22.27;3.58;;;15.90;91.20;;;;;;5072070;28;20025;-81
2023/07/16 04:54:56;;;;;;;24.50;3.83;;;15.90;91.30;;;;;;5072373;28;20435;-84
2023/07/16 04:57:22;;;;;;;17.33;3.83;;;16.00;91.70;;;;;;5054638;28;20032;-81
2023/07/16 04:59:47;;;;;;;25.23;3.92;;;16.00;91.50;;;;;;5071838;28;20103;-81
2023/07/16 05:02:15;;;;;;;14.77;3.15;;;16.10;91.90;;;;;;5072021;28;20029;-82
2023/07/16 05:04:41;;;;;;;19.38;3.30;;;16.20;91.80;;;;;;5055397;28;20021;-81
2023/07/16 05:07:07;;;;;;;14.30;3.95;;;16.20;92.70;;;;;;5071666;28;20031;-79
2023/07/16 05:09:33;;;;;;;24.92;6.20;;;16.10;93.50;;;;;;5072425;28;20044;-81
2023/07/16 05:11:59;;;;;;;26.35;5.88;;;16.20;93.70;;;;;;5071839;28;20480;-78
2023/07/16 05:14:28;;;;;;;23.58;7.32;;;16.20;93.30;;;;;;5071622;28;20025;-81
2023/07/16 05:16:55;;;;;;;28.83;8.02;;;16.20;93.10;;;;;;5071603;28;20041;-79
2023/07/16 05:19:21;;;;;;;26.15;7.35;;;16.30;93.10;;;;;;5064758;28;20016;-80
2023/07/16 05:21:46;;;;;;;22.77;5.93;;;16.30;92.60;;;;;;5071550;28;20392;-79
2023/07/16 05:24:12;;;;;;;22.00;5.75;;;16.30;92.30;;;;;;5053918;28;20025;-83
2023/07/16 05:26:38;;;;;;;23.05;4.45;;;16.30;92.20;;;;;;5071293;28;20063;-82
2023/07/16 05:29:04;;;;;;;14.38;3.00;;;16.30;92.50;;;;;;5071388;28;20025;-81
2023/07/16 05:31:29;;;;;;;21.02;4.10;;;16.20;92.40;;;;;;5071299;28;20035;-82
2023/07/16 05:36:33;;;;;;;17.75;3.20;;;16.20;91.10;;;;;;5062666;28;20041;-85
2023/07/16 05:38:58;;;;;;;14.70;3.10;;;16.30;90.70;;;;;;5051179;28;20044;-86
2023/07/16 05:41:24;;;;;;;26.05;3.55;;;16.40;91.10;;;;;;5050526;28;20044;-82
2023/07/16 05:43:49;;;;;;;19.88;5.55;;;16.60;91.40;;;;;;5033892;28;20112;-82
2023/07/16 05:46:15;;;;;;;28.50;7.35;;;16.70;91.40;;;;;;5051240;28;20031;-83
2023/07/16 05:48:41;;;;;;;21.98;5.15;;;16.70;91.20;;;;;;5058352;28;20047;-83
2023/07/16 05:51:06;;;;;;;18.52;4.63;;;16.60;91.30;;;;;;5034108;28;20108;-83
2023/07/16 05:53:32;;;;;;;18.00;4.32;;;16.60;90.80;;;;;;5051138;28;20033;-82
2023/07/16 05:55:58;;;;;;;24.60;4.82;;;16.60;90.60;;;;;;5051054;28;20067;-83
2023/07/16 05:58:23;;;;;;;17.48;5.07;;;16.70;90.50;;;;;;5034408;28;20028;-86
2023/07/16 06:00:49;;;;;;;28.77;7.60;;;16.70;90.90;;;;;;5051298;28;20719;-86
2023/07/16 06:03:16;;;;;;;17.10;4.80;;;16.80;90.90;;;;;;5033986;28;20366;-85
2023/07/16 06:05:42;;;;;;;20.42;5.57;;;16.80;91.20;;;;;;5044286;28;20104;-85
2023/07/16 06:08:08;;;;;;;21.08;5.60;;;16.80;91.10;;;;;;5050384;28;20028;-83
2023/07/16 06:10:34;;;;;;;22.38;6.30;;;16.90;90.90;;;;;;5051176;28;20028;-84
2023/07/16 06:13:00;;;;;;;28.50;6.05;;;16.80;90.50;;;;;;5051108;28;20039;-83
2023/07/16 06:15:26;;;;;;;26.95;5.78;;;16.80;90.50;;;;;;5050958;28;20432;-83
2023/07/16 06:17:51;;;;;;;21.38;5.32;;;16.70;90.80;;;;;;5050871;28;20032;-82
2023/07/16 06:20:17;;;;;;;17.85;2.75;;;16.70;89.80;;;;;;5033575;28;20535;-86
2023/07/16 06:22:43;;;;;;;11.18;2.97;;;16.90;89.80;;;;;;5050882;28;20461;-84
2023/07/16 06:25:10;;;;;;;21.35;3.13;;;17.10;89.30;;;;;;5050391;28;20029;-85
2023/07/16 06:27:36;;;;;;;18.25;3.30;;;17.10;88.40;;;;;;5050884;28;20039;-85
2023/07/16 06:30:02;;;;;;;17.48;3.50;;;17.10;89.70;;;;;;5055134;28;20021;-84
2023/07/16 06:32:28;;;;;;;20.00;5.63;;;17.10;88.50;;;;;;5050412;28;20396;-83
2023/07/16 06:34:53;;;;;;;19.77;3.83;;;17.20;89.40;;;;;;5062399;22;20041;-80
2023/07/16 06:37:19;;;;;;;20.88;4.82;;;17.20;88.00;;;;;;5036600;28;20442;-81
2023/07/16 06:39:44;;;;;;;16.77;4.90;;;17.10;89.20;;;;;;5031392;28;20109;-79
2023/07/16 06:42:10;;;;;;;23.95;6.20;;;17.10;88.90;;;;;;5030901;28;20028;-81
2023/07/16 06:44:36;;;;;;;12.18;3.20;;;17.00;90.00;;;;;;5031328;28;20417;-81
2023/07/16 06:47:01;;;;;;;18.85;3.42;;;17.00;87.70;;;;;;5031297;28;20033;-80
2023/07/16 06:49:27;;;;;;;16.52;4.50;;;17.20;87.50;;;;;;5029384;28;20514;-81
2023/07/16 06:51:53;;;;;;;23.80;4.95;;;17.30;87.40;;;;;;5046821;28;20020;-81
2023/07/16 06:54:18;;;;;;;20.45;5.13;;;17.30;87.20;;;;;;5034772;28;20414;-82
2023/07/16 06:56:44;;;;;;;15.57;3.55;;;17.30;87.90;;;;;;5033486;28;20034;-83
2023/07/16 06:59:10;;;;;;;10.98;2.70;;;17.40;86.90;;;;;;5050211;28;20506;-81
2023/07/16 07:01:35;;;;;;;15.40;4.35;;;17.50;86.20;;;;;;5034454;28;20018;-81
2023/07/16 07:04:01;;;;;;;16.00;4.15;;;17.50;86.70;;;;;;5034867;28;20029;-83
2023/07/16 07:06:26;;;;;;;21.35;6.05;;;17.50;86.40;;;;;;5041603;28;20026;-83
2023/07/16 07:08:52;;;;;;;31.08;8.02;;;17.40;88.00;;;;;;5050544;28;20032;-82
2023/07/16 07:11:18;;;;;;;23.75;6.03;;;17.30;88.50;;;;;;5050336;28;20048;-81
2023/07/16 07:13:44;;;;;;;10.20;3.70;;;17.40;89.70;;;;;;5034713;28;20025;-81
2023/07/16 07:16:09;;;;;;;22.65;5.55;;;17.40;87.90;;;;;;5029147;28;20037;-81
2023/07/16 07:18:35;;;;;;;21.08;4.47;;;17.60;87.40;;;;;;5034405;28;20021;-82
2023/07/16 07:21:01;;;;;;;15.38;4.95;;;17.70;87.60;;;;;;5034651;28;20029;-81
2023/07/16 07:23:26;;;;;;;24.55;5.07;;;17.60;87.00;;;;;;5026799;28;20017;-80
2023/07/16 07:25:52;;;;;;;22.98;5.20;;;17.60;86.20;;;;;;5024412;28;20167;-82
2023/07/16 07:28:19;;;;;;;18.90;5.00;;;17.60;87.40;;;;;;5029817;28;20057;-78
2023/07/16 07:30:45;;;;;;;24.70;7.43;;;17.50;85.50;;;;;;5025683;28;20021;-81
2023/07/16 07:33:11;;;;;;;21.05;5.07;;;17.50;87.60;;;;;;5024073;28;20026;-82
2023/07/16 07:35:37;;;;;;;14.98;3.17;;;17.60;87.20;;;;;;5066205;22;20074;-82
2023/07/16 07:38:02;;;;;;;13.38;2.85;;;17.70;86.80;;;;;;5072868;28;20477;-84
2023/07/16 07:40:28;;;;;;;16.75;2.90;;;17.70;86.40;;;;;;5073495;28;20362;-83
2023/07/16 07:42:54;;;;;;;17.33;2.90;;;17.70;85.70;;;;;;5073000;28;20099;-83
2023/07/16 07:45:19;;;;;;;15.65;3.00;;;17.90;86.60;;;;;;5073335;28;20025;-82
2023/07/16 07:47:45;;;;;;;22.92;3.58;;;18.00;85.20;;;;;;5073306;28;20021;-83
2023/07/16 07:50:11;;;;;;;14.13;2.25;;;18.20;84.50;;;;;;5072051;28;20405;-86
2023/07/16 07:52:36;;;;;;;10.48;2.47;;;18.30;84.70;;;;;;5072230;28;20116;-83
2023/07/16 07:55:03;;;;;;;17.92;2.70;;;18.30;83.30;;;;;;5072966;28;20074;-82
2023/07/16 07:57:29;;;;;;;18.10;2.78;;;18.20;83.60;;;;;;5072510;28;20027;-83
2023/07/16 07:59:57;;;;;;;14.15;4.47;;;18.20;82.70;;;;;;5072529;28;20016;-82
2023/07/16 08:02:24;;;;;;;16.17;4.65;;;18.10;81.20;;;;;;5073029;28;20028;-84
2023/07/16 08:04:51;;;;;;;15.95;3.65;;;18.30;81.50;;;;;;5068953;28;20013;-83
2023/07/16 08:07:17;;;;;;;19.80;4.72;;;18.30;82.30;;;;;;5072786;28;20092;-83
2023/07/16 08:09:43;;;;;;;18.05;4.75;;;18.40;81.00;;;;;;5072419;28;20556;-83
2023/07/16 08:12:09;;;;;;;28.75;5.18;;;18.30;81.30;;;;;;5072423;28;20019;-83
2023/07/16 08:14:34;;;;;;;19.23;3.42;;;18.20;83.30;;;;;;5072297;28;20024;-84
2023/07/16 08:17:00;;;;;;;11.77;2.45;;;18.10;83.40;;;;;;5072223;28;20032;-83
2023/07/16 08:19:25;;;;;;;14.55;4.00;;;18.20;83.30;;;;;;5070399;28;20020;-85
2023/07/16 08:21:51;;;;;;;13.60;3.33;;;18.30;84.20;;;;;;5072256;28;20198;-82
2023/07/16 08:24:17;;;;;;;13.00;3.00;;;18.20;82.20;;;;;;5072481;28;20024;-82
2023/07/16 08:26:42;;;;;;;11.80;2.97;;;18.30;80.60;;;;;;5072013;28;20036;-82
2023/07/16 08:29:08;;;;;;;19.33;4.55;;;18.20;81.00;;;;;;5072060;28;20055;-84
2023/07/16 08:31:33;;;;;;;15.13;4.57;;;18.30;82.40;;;;;;5072603;28;20203;-83
2023/07/16 08:33:59;;;;;;;18.23;4.43;;;18.60;82.70;;;;;;5072138;28;20017;-83
2023/07/16 08:36:26;;;;;;;22.58;4.28;;;19.00;80.30;;;;;;5087079;22;20131;-81
2023/07/16 08:38:51;;;;;;;21.30;5.80;;;19.00;79.00;;;;;;5072404;28;20017;-81
2023/07/16 08:41:17;;;;;;;19.00;4.05;;;19.00;80.50;;;;;;5057079;28;20020;-82
2023/07/16 08:43:46;;;;;;;12.90;4.10;;;18.90;78.70;;;;;;5054478;28;20469;-83
2023/07/16 08:46:12;;;;;;;19.05;3.58;;;19.30;78.10;;;;;;5073062;28;20135;-84
2023/07/16 08:48:37;;;;;;;12.70;3.42;;;20.20;74.60;;;;;;5072110;28;20099;-85
2023/07/16 08:51:03;;;;;;;13.07;2.72;;;21.10;72.10;;;;;;5072062;28;20543;-85
2023/07/16 08:53:30;;;;;;;11.90;2.83;;;21.70;69.80;;;;;;5072279;28;20051;-84
2023/07/16 08:55:57;;;;;;;10.23;2.50;;;22.30;67.20;;;;;;5076572;28;20016;-79
2023/07/16 08:58:24;;;;;;;9.07;2.35;;;22.60;65.90;;;;;;5054415;28;20102;-81
2023/07/16 09:00:50;;;;;;;11.00;2.90;;;22.40;64.20;;;;;;5072104;28;20024;-82
2023/07/16 09:03:17;;;;;;;12.55;2.53;;;22.40;63.90;;;;;;5072086;28;20023;-81
2023/07/16 09:05:44;;;;;;;10.98;2.70;;;22.90;63.20;;;;;;5071215;28;20016;-82
2023/07/16 09:08:10;;;;;;;14.65;2.65;;;23.00;60.50;;;;;;5071500;28;20035;-81
2023/07/16 09:10:36;;;;;;;9.00;2.13;;;23.40;61.70;;;;;;5071575;28;20495;-82
2023/07/16 09:13:02;;;;;;;6.53;1.60;;;23.00;59.20;;;;;;5071491;28;20017;-81
2023/07/16 09:15:29;;;;;;;11.43;2.25;;;22.90;57.60;;;;;;5070125;28;20024;-80
2023/07/16 09:17:55;;;;;;;12.77;2.60;;;22.00;60.40;;;;;;5071485;28;20076;-81
2023/07/16 09:20:23;;;;;;;13.32;3.85;;;22.00;62.20;;;;;;5053987;28;20096;-82
2023/07/16 09:22:49;;;;;;;23.98;5.70;;;22.20;60.80;;;;;;5071553;28;20029;-80
2023/07/16 09:25:15;;;;;;;16.08;5.60;;;22.60;61.50;;;;;;5071625;28;20476;-82
2023/07/16 09:27:40;;;;;;;15.27;3.83;;;22.90;60.80;;;;;;5071263;28;20469;-81
2023/07/16 09:30:07;;;;;;;12.27;2.55;;;23.30;58.20;;;;;;5070992;28;20034;-81
2023/07/16 09:32:39;;;;;;;12.02;2.47;;;23.50;57.70;;;;;;5053331;28;20031;-81
2023/07/16 09:35:15;;;;;;;10.35;3.00;;;23.60;57.60;;;;;;5057327;22;21163;-82
2023/07/16 09:37:42;;;;;;;15.07;4.40;;;23.30;57.30;;;;;;5037385;28;20116;-82
2023/07/16 09:40:12;;;;;;;14.75;2.55;;;22.60;59.00;;;;;;5019811;28;20113;-81
2023/07/16 09:42:42;;;;;;;7.35;1.67;;;22.20;60.10;;;;;;5013765;28;20501;-81
2023/07/16 09:45:19;;;;;;;8.93;2.40;;;22.60;59.10;;;;;;5013359;28;20028;-82
2023/07/16 09:47:44;;;;;;;11.07;2.25;;;22.40;57.10;;;;;;5031372;28;20029;-82
2023/07/16 09:50:11;;;;;;;11.85;4.38;;;22.10;60.50;;;;;;5030994;28;20115;-82
2023/07/16 09:52:37;;;;;;;11.35;2.58;;;22.70;59.20;;;;;;5031296;28;20053;-81
2023/07/16 09:55:04;;;;;;;9.68;2.50;;;23.10;56.40;;;;;;5030939;28;20014;-82
2023/07/16 09:57:36;;;;;;;6.95;2.40;;;22.60;56.60;;;;;;5030963;28;20092;-82
2023/07/16 10:00:05;;;;;;;15.55;2.50;;;21.70;58.80;;;;;;5030916;28;20045;-83
2023/07/16 10:02:35;;;;;;;11.57;3.30;;;21.00;62.70;;;;;;5016887;28;20039;-81
2023/07/16 10:05:12;;;;;;;16.48;3.88;;;21.50;63.00;;;;;;5017589;28;20114;-83
2023/07/16 10:07:39;;;;;;;15.10;2.58;;;22.50;61.20;;;;;;5031426;28;20017;-82
2023/07/16 10:10:09;;;;;;;12.65;2.67;;;23.30;57.10;;;;;;5030740;28;20035;-85
2023/07/16 10:12:35;;;;;;;14.35;3.33;;;23.70;56.20;;;;;;5030755;28;20013;-82
2023/07/16 10:15:03;;;;;;;18.70;2.95;;;23.00;57.70;;;;;;5030004;28;20104;-80
2023/07/16 10:17:31;;;;;;;17.65;2.90;;;22.70;57.50;;;;;;5028609;28;20056;-81
2023/07/16 10:20:04;;;;;;;13.93;3.28;;;23.10;60.70;;;;;;5028619;28;20032;-81
2023/07/16 10:22:33;;;;;;;15.15;3.03;;;23.90;55.30;;;;;;5029185;28;20021;-83
2023/07/16 10:25:00;;;;;;;10.20;2.97;;;24.30;52.30;;;;;;5011513;28;20429;-82
2023/07/16 10:27:34;;;;;;;9.57;1.90;;;24.20;53.40;;;;;;5029549;28;20033;-82
2023/07/16 10:30:04;;;;;;;16.23;2.80;;;24.60;51.40;;;;;;5029989;28;20470;-81
2023/07/16 10:32:31;;;;;;;9.57;2.40;;;24.50;52.00;;;;;;5030644;28;20064;-80
2023/07/16 10:34:57;;;;;;;8.60;1.83;;;24.60;50.80;;;;;;5046091;22;20057;-79
2023/07/16 10:37:25;;;;;;;11.13;2.30;;;25.00;50.30;;;;;;5029488;28;20071;-80
2023/07/16 10:39:57;;;;;;;15.98;4.15;;;25.40;48.70;;;;;;5046706;28;20032;-79
2023/07/16 10:42:24;;;;;;;12.23;3.80;;;26.00;47.10;;;;;;5025422;28;20018;-79
2023/07/16 10:44:54;;;;;;;8.85;3.00;;;25.90;49.20;;;;;;5030247;28;20052;-79
2023/07/16 10:47:24;;;;;;;8.93;2.40;;;26.50;47.00;;;;;;5031430;28;20029;-79
2023/07/16 10:49:54;;;;;;;8.67;2.63;;;26.10;48.20;;;;;;5031001;28;20026;-80
2023/07/16 10:52:21;;;;;;;10.02;1.92;;;26.40;47.20;;;;;;5024722;28;20013;-81
2023/07/16 10:54:49;;;;;;;10.18;3.38;;;26.50;46.30;;;;;;5047276;28;20466;-81
2023/07/16 10:57:19;;;;;;;11.55;2.17;;;26.90;47.40;;;;;;5034707;28;20474;-80
2023/07/16 10:59:45;;;;;;;9.95;2.70;;;27.50;46.40;;;;;;5031035;28;20052;-79
2023/07/16 11:02:12;;;;;;;8.63;2.47;;;28.00;46.50;;;;;;5030987;28;20417;-80
2023/07/16 11:04:39;;;;;;;12.80;3.13;;;27.70;45.20;;;;;;5030944;28;20009;-82
2023/07/16 11:07:09;;;;;;;9.65;1.85;;;27.70;44.30;;;;;;5035937;28;20057;-83
2023/07/16 11:09:41;;;;;;;7.47;2.22;;;26.90;43.10;;;;;;5031320;28;20068;-83
2023/07/16 11:12:12;;;;;;;12.48;2.55;;;26.60;45.00;;;;;;5031341;28;20100;-80
2023/07/16 11:14:39;;;;;;;9.95;2.60;;;26.00;45.80;;;;;;5031257;28;20417;-81
2023/07/16 11:17:07;;;;;;;10.57;2.65;;;26.10;46.10;;;;;;5031055;28;20041;-80
2023/07/16 11:19:33;;;;;;;11.88;2.55;;;26.60;46.80;;;;;;5031346;28;20030;-80
2023/07/16 11:22:00;;;;;;;12.68;2.88;;;27.00;47.20;;;;;;5030663;28;20029;-80
2023/07/16 11:24:27;;;;;;;6.68;2.25;;;26.50;45.40;;;;;;5031233;28;20041;-82
2023/07/16 11:26:59;;;;;;;11.80;3.05;;;26.40;46.80;;;;;;5030880;28;20061;-81
2023/07/16 11:29:25;;;;;;;10.13;2.95;;;26.20;46.30;;;;;;5030711;28;20021;-81
2023/07/16 11:31:52;;;;;;;10.68;2.60;;;26.20;46.90;;;;;;5030421;28;20360;-82
2023/07/16 11:36:54;;;;;;;14.48;2.70;;;26.10;44.80;;;;;;5052755;28;20053;-81
2023/07/16 11:39:20;;;;;;;10.45;2.97;;;25.30;47.60;;;;;;5051536;28;20051;-80
2023/07/16 11:41:58;;;;;;;14.82;3.78;;;24.90;49.10;;;;;;5053590;28;20017;-80
2023/07/16 11:44:23;;;;;;;24.60;4.18;;;25.70;49.90;;;;;;5053879;28;20017;-80
2023/07/16 11:46:50;;;;;;;11.60;2.50;;;26.20;46.90;;;;;;5053722;28;20025;-81
2023/07/16 11:49:15;;;;;;;11.15;2.65;;;26.10;46.70;;;;;;5053756;28;20013;-82
2023/07/16 11:51:43;;;;;;;9.57;2.55;;;25.70;47.10;;;;;;5053368;28;20497;-81
2023/07/16 11:54:10;;;;;;;7.68;2.67;;;25.60;47.90;;;;;;5053275;28;20059;-80
2023/07/16 11:56:36;;;;;;;8.52;2.65;;;25.10;48.30;;;;;;5053317;28;20041;-81
2023/07/16 11:59:01;;;;;;;13.93;3.05;;;24.50;50.80;;;;;;5053501;28;20024;-79
2023/07/16 12:01:27;;;;;;;13.63;2.47;;;24.30;53.10;;;;;;5046770;28;20033;-80
2023/07/16 12:03:53;;;;;;;19.25;3.22;;;24.00;53.90;;;;;;5053503;28;20083;-80
2023/07/16 12:06:18;;;;;;;15.25;3.13;;;23.30;57.20;;;;;;5059207;28;20541;-81
2023/07/16 12:08:44;;;;;;;16.45;3.45;;;23.40;59.10;;;;;;5036196;28;20179;-80
2023/07/16 12:11:09;;;;;;;14.35;2.83;;;23.90;56.60;;;;;;5053222;28;20078;-81
2023/07/16 12:13:35;;;;;;;17.00;2.97;;;24.50;54.30;;;;;;5053237;28;20074;-81
2023/07/16 12:16:01;;;;;;;11.82;3.08;;;25.10;54.80;;;;;;5035974;28;20098;-79
2023/07/16 12:18:26;;;;;;;14.75;3.10;;;25.20;53.30;;;;;;5053248;28;20040;-82
2023/07/16 12:20:52;;;;;;;9.55;2.20;;;25.50;52.00;;;;;;5052709;28;20548;-81
2023/07/16 12:23:18;;;;;;;12.50;2.72;;;26.20;49.30;;;;;;5053409;28;20374;-81
2023/07/16 12:25:43;;;;;;;16.45;2.40;;;26.80;50.30;;;;;;5053017;28;20048;-80
2023/07/16 12:28:09;;;;;;;7.03;2.25;;;26.60;48.60;;;;;;5052616;28;20096;-81
2023/07/16 12:30:35;;;;;;;12.13;2.85;;;27.00;49.80;;;;;;5053423;28;20021;-83
2023/07/16 12:33:03;;;;;;;8.70;2.65;;;27.50;47.00;;;;;;5052995;28;20017;-80
2023/07/16 12:35:29;;;;;;;17.70;3.33;;;27.70;46.70;;;;;;5082040;22;20042;-80
2023/07/16 12:37:57;;;;;;;7.68;2.63;;;27.60;47.10;;;;;;5077292;28;20107;-81
2023/07/16 12:40:24;;;;;;;12.52;2.60;;;27.30;45.90;;;;;;5072069;28;20016;-81